Time;durP1;ratioP1;P1;durP2;ratioP2;P2;SDS_P1;SDS_P2;PMS_P1;PMS_P2;Temp;Humidity;BMP_temperature;BMP_pressure;BME280_temperature;BME280_humidity;BME280_pressure;Samples;Min_cycle;Max_cycle;Signal;HPM_P1;HPM_P2
2020/12/24 00:00:15;;;;;;;1.20;0.57;;;;;;;10.03;84.76;96031.72;4942617;28;20470;-39
2020/12/24 00:02:42;;;;;;;1.70;0.60;;;;;;;10.09;83.57;96020.91;4937180;28;20556;-40
2020/12/24 00:05:10;;;;;;;0.80;0.50;;;;;;;10.12;80.81;96012.06;4936416;28;21056;-39
2020/12/24 00:07:37;;;;;;;1.90;0.67;;;;;;;10.10;81.27;96009.56;4933698;28;21119;-40
2020/12/24 00:10:05;;;;;;;0.87;0.50;;;;;;;10.03;80.38;96012.69;4941389;28;20573;-44
2020/12/24 00:12:42;;;;;;;1.40;0.63;;;;;;;10.11;80.06;96029.41;4945482;28;20535;-40
2020/12/24 00:15:09;;;;;;;1.77;0.70;;;;;;;10.04;80.85;96022.97;4938410;28;20496;-39
2020/12/24 00:17:38;;;;;;;1.23;0.50;;;;;;;10.01;80.45;96035.31;4939160;28;20451;-40
2020/12/24 00:20:06;;;;;;;6.97;0.70;;;;;;;9.93;81.22;96046.25;4942338;28;20984;-39
2020/12/24 00:22:33;;;;;;;4.60;0.80;;;;;;;9.91;81.87;96061.13;4942488;28;20827;-40
2020/12/24 00:25:00;;;;;;;2.90;0.67;;;;;;;9.85;83.43;96051.16;4944699;28;20516;-39
2020/12/24 00:27:34;;;;;;;5.97;0.90;;;;;;;9.68;85.93;96055.81;4942754;28;20865;-39
2020/12/24 00:30:01;;;;;;;1.83;0.70;;;;;;;9.55;88.39;96050.63;4936844;28;20804;-40
2020/12/24 00:32:28;;;;;;;1.60;0.60;;;;;;;9.44;89.71;96058.28;4938432;28;20470;-40
2020/12/24 00:34:56;;;;;;;2.67;0.70;;;;;;;9.29;92.00;96054.09;4940870;28;21005;-39
2020/12/24 00:37:23;;;;;;;0.93;0.60;;;;;;;9.09;93.91;96036.38;4943948;28;20995;-40
2020/12/24 00:39:49;;;;;;;2.40;0.60;;;;;;;9.05;95.42;96029.72;4940119;28;20559;-39
2020/12/24 00:42:16;;;;;;;4.90;0.80;;;;;;;8.92;97.25;96028.84;4942077;28;20565;-40
2020/12/24 00:47:47;;;;;;;5.63;0.70;;;;;;;8.81;98.17;96041.69;4914505;29;20552;-44
2020/12/24 00:50:15;;;;;;;7.20;0.90;;;;;;;8.78;99.22;96030.69;4950597;23;20464;-44
2020/12/24 00:52:42;;;;;;;1.30;0.70;;;;;;;8.76;99.35;96042.91;4992465;23;20793;-39
2020/12/24 00:55:09;;;;;;;0.90;0.50;;;;;;;8.66;100.00;96037.50;4935449;28;21097;-39
2020/12/24 00:57:36;;;;;;;0.90;0.60;;;;;;;8.62;100.00;96045.53;4932793;28;20868;-39
2020/12/24 01:00:05;;;;;;;1.80;0.60;;;;;;;8.64;99.54;96044.50;4942222;28;21051;-39
2020/12/24 01:02:33;;;;;;;0.70;0.50;;;;;;;8.61;100.00;96028.31;4940433;28;20512;-40
2020/12/24 01:05:00;;;;;;;0.80;0.57;;;;;;;8.57;100.00;96019.91;4944780;28;20985;-39
2020/12/24 01:07:28;;;;;;;1.37;0.60;;;;;;;8.56;100.00;96015.63;4949691;28;20954;-39
2020/12/24 01:09:55;;;;;;;1.40;0.93;;;;;;;8.56;100.00;96018.22;4948185;28;20495;-44
2020/12/24 01:12:22;;;;;;;1.40;0.60;;;;;;;8.57;100.00;96024.25;4947831;28;20532;-38
2020/12/24 01:14:48;;;;;;;6.13;0.90;;;;;;;8.26;100.00;95971.84;4947764;28;20500;-43
2020/12/24 01:17:15;;;;;;;0.80;0.50;;;;;;;8.56;100.00;96036.38;4947096;28;20843;-43
2020/12/24 01:19:42;;;;;;;2.43;0.80;;;;;;;8.54;100.00;96035.66;4945179;28;20552;-43
2020/12/24 01:22:09;;;;;;;1.57;0.70;;;;;;;8.48;100.00;96038.63;4946622;28;20910;-43
2020/12/24 01:24:37;;;;;;;2.63;0.70;;;;;;;8.46;100.00;96037.91;4939925;28;21010;-43
2020/12/24 01:27:03;;;;;;;1.63;0.50;;;;;;;8.50;100.00;96047.13;4947075;28;20532;-39
2020/12/24 01:29:31;;;;;;;1.40;0.50;;;;;;;8.61;100.00;96059.44;4941586;28;20553;-39
2020/12/24 01:31:57;;;;;;;0.70;0.60;;;;;;;8.56;100.00;96051.13;4945077;28;20474;-39
2020/12/24 01:34:24;;;;;;;0.70;0.50;;;;;;;8.63;99.76;96037.66;4941625;28;20560;-39
2020/12/24 01:36:51;;;;;;;1.60;0.63;;;;;;;8.65;100.00;96041.00;4946629;28;20979;-39
2020/12/24 01:39:18;;;;;;;1.40;0.50;;;;;;;8.72;99.54;96050.03;4947154;28;20470;-38
2020/12/24 01:41:49;;;;;;;0.80;0.50;;;;;;;8.75;100.00;96073.22;4945863;28;20834;-39
2020/12/24 01:44:22;;;;;;;2.50;0.50;;;;;;;8.77;100.00;96099.91;4943066;28;21169;-39
2020/12/24 01:46:49;;;;;;;0.80;0.50;;;;;;;8.80;100.00;96117.88;4951153;28;20450;-43
2020/12/24 01:49:17;;;;;;;0.90;0.50;;;;;;;8.67;100.00;96106.59;4946829;28;20560;-43
2020/12/24 01:51:50;;;;;;;1.87;0.50;;;;;;;8.77;99.91;96132.81;4945631;28;20775;-43
2020/12/24 01:54:18;;;;;;;0.90;0.50;;;;;;;8.79;99.12;96139.53;4944147;28;20875;-43
2020/12/24 01:56:45;;;;;;;1.87;0.53;;;;;;;8.75;99.63;96134.66;4943261;28;21195;-44
2020/12/24 01:59:15;;;;;;;0.87;0.47;;;;;;;8.67;98.47;96106.59;4947601;28;20494;-44
2020/12/24 02:01:44;;;;;;;0.90;0.50;;;;;;;8.70;95.34;96062.28;4944234;28;20500;-43
2020/12/24 02:04:12;;;;;;;1.80;0.90;;;;;;;8.73;95.90;96053.50;4948228;28;21218;-40
2020/12/24 02:06:39;;;;;;;5.50;0.60;;;;;;;8.65;93.29;96034.97;4947140;28;21159;-39
2020/12/24 02:09:06;;;;;;;3.13;0.97;;;;;;;8.60;93.06;96035.28;4950086;28;20501;-43
2020/12/24 02:11:34;;;;;;;2.27;0.90;;;;;;;8.54;89.26;96014.91;4947293;28;20785;-44
2020/12/24 02:14:02;;;;;;;1.97;0.80;;;;;;;8.49;88.32;96006.59;4945365;28;20623;-48
2020/12/24 02:16:47;;;;;;;1.00;0.60;;;;;;;8.53;88.07;96005.47;4956688;28;20512;-45
2020/12/24 02:19:35;;;;;;;0.83;0.50;;;;;;;8.49;85.39;96024.72;4948998;28;20501;-43
2020/12/24 02:22:04;;;;;;;2.23;0.60;;;;;;;8.47;85.99;95995.47;4942659;28;20563;-43
2020/12/24 02:24:31;;;;;;;3.30;0.70;;;;;;;8.43;87.42;95981.03;4940590;28;20529;-39
2020/12/24 02:26:57;;;;;;;1.10;0.70;;;;;;;8.38;85.82;95979.66;4939534;28;20928;-38
2020/12/24 02:29:24;;;;;;;1.90;0.60;;;;;;;8.27;85.74;95982.13;4940401;28;21014;-39
2020/12/24 02:31:51;;;;;;;4.30;0.63;;;;;;;8.00;85.58;95954.44;4943010;28;20844;-44
2020/12/24 02:34:18;;;;;;;5.17;0.60;;;;;;;8.13;83.79;95978.69;4942573;28;20521;-43
2020/12/24 02:36:45;;;;;;;1.60;0.63;;;;;;;8.10;84.61;95984.88;4939586;28;21165;-43
2020/12/24 02:39:13;;;;;;;2.73;0.50;;;;;;;7.98;84.28;95980.47;4938511;28;20527;-43
2020/12/24 02:41:39;;;;;;;3.53;0.67;;;;;;;7.97;85.40;95965.00;4939666;28;20466;-43
2020/12/24 02:44:06;;;;;;;1.67;0.50;;;;;;;7.96;85.78;95982.31;4940217;28;20976;-43
2020/12/24 02:46:34;;;;;;;1.10;0.70;;;;;;;7.86;86.95;95976.03;4944307;28;20925;-44
2020/12/24 02:49:01;;;;;;;1.37;0.60;;;;;;;7.88;87.13;95957.81;4945091;28;20505;-43
2020/12/24 02:51:27;;;;;;;1.33;0.60;;;;;;;7.83;88.06;95970.22;4943233;28;20541;-43
2020/12/24 02:53:54;;;;;;;1.07;0.60;;;;;;;7.81;88.49;95977.25;4941090;28;21269;-43
2020/12/24 02:56:22;;;;;;;1.27;0.50;;;;;;;7.62;88.99;95945.59;4939673;28;21150;-44
2020/12/24 02:58:49;;;;;;;3.60;0.60;;;;;;;7.75;89.89;95964.66;4942881;28;20928;-45
2020/12/24 03:01:15;;;;;;;2.07;0.50;;;;;;;7.75;89.66;95972.44;4947206;28;20677;-42
2020/12/24 03:03:42;;;;;;;0.70;0.50;;;;;;;7.71;90.12;95984.75;4942528;28;20466;-42
2020/12/24 03:06:09;;;;;;;3.10;0.60;;;;;;;7.67;91.13;95979.84;4944167;28;20849;-42
2020/12/24 03:08:36;;;;;;;1.55;0.50;;;;;;;7.67;91.32;95985.88;4942905;28;21173;-42
2020/12/24 03:11:03;;;;;;;0.70;0.50;;;;;;;7.71;90.86;96007.19;4943642;28;20692;-42
2020/12/24 03:13:30;;;;;;;1.35;0.60;;;;;;;7.72;91.59;95998.53;4943339;28;20442;-43
2020/12/24 03:15:57;;;;;;;0.93;0.50;;;;;;;7.66;91.53;95983.34;4944291;28;20282;-41
2020/12/24 03:18:24;;;;;;;1.33;0.70;;;;;;;7.63;91.77;95979.19;4938243;28;20493;-45
2020/12/24 03:20:51;;;;;;;1.13;0.50;;;;;;;7.62;92.15;95962.00;4943203;28;20650;-44
2020/12/24 03:23:18;;;;;;;0.90;0.55;;;;;;;7.62;92.79;95962.00;4941848;28;20682;-43
2020/12/24 03:25:44;;;;;;;1.10;0.60;;;;;;;7.60;92.56;95943.13;4940633;28;20855;-43
2020/12/24 03:28:11;;;;;;;1.43;0.50;;;;;;;7.52;93.41;95939.34;4938566;28;20830;-43
2020/12/24 03:30:39;;;;;;;1.85;0.50;;;;;;;7.49;93.58;95939.50;4939339;28;20509;-39
2020/12/24 03:33:06;;;;;;;0.80;0.50;;;;;;;7.47;94.48;95946.53;4940893;28;20249;-39
2020/12/24 03:35:33;;;;;;;0.80;0.50;;;;;;;7.42;95.17;95931.28;4941789;28;20227;-39
2020/12/24 03:38:00;;;;;;;0.98;0.50;;;;;;;7.02;95.66;95866.50;4942497;28;20379;-43
2020/12/24 03:40:27;;;;;;;0.70;0.50;;;;;;;7.38;95.69;95921.22;4942052;28;20230;-48
2020/12/24 03:42:54;;;;;;;1.33;0.60;;;;;;;7.38;95.59;95931.56;4943078;28;20980;-43
2020/12/24 03:45:21;;;;;;;1.60;0.52;;;;;;;7.33;95.78;95928.41;4942781;28;20700;-44
2020/12/24 03:47:49;;;;;;;5.03;0.60;;;;;;;7.29;96.22;95934.72;4941566;28;20645;-44
2020/12/24 03:50:34;;;;;;;0.70;0.50;;;;;;;7.29;96.30;95937.31;4938163;28;20257;-44
2020/12/24 03:53:01;;;;;;;1.50;0.60;;;;;;;7.20;96.98;95937.84;4942767;28;20618;-39
2020/12/24 03:55:28;;;;;;;0.90;0.65;;;;;;;7.20;97.32;95930.09;4939520;28;20260;-39
2020/12/24 03:57:55;;;;;;;0.70;0.50;;;;;;;7.15;97.77;95935.50;4934768;28;20601;-43
2020/12/24 04:00:22;;;;;;;1.45;0.60;;;;;;;7.11;98.18;95953.91;4941477;28;20280;-44
2020/12/24 04:02:49;;;;;;;2.70;0.77;;;;;;;7.05;98.79;95949.09;4939050;28;20605;-44
2020/12/24 04:05:16;;;;;;;1.00;0.60;;;;;;;7.03;99.28;95945.75;4940707;28;20606;-44
2020/12/24 04:07:43;;;;;;;1.92;0.50;;;;;;;6.99;99.78;95947.69;4941903;28;20635;-44
2020/12/24 04:10:10;;;;;;;0.80;0.50;;;;;;;7.00;99.66;95956.31;4943002;28;20772;-39
2020/12/24 04:12:36;;;;;;;2.08;0.60;;;;;;;6.94;100.00;95943.72;4934806;28;20645;-43
2020/12/24 04:15:03;;;;;;;1.00;0.50;;;;;;;7.03;100.00;95940.59;4938560;28;20227;-39
2020/12/24 04:17:30;;;;;;;1.48;0.63;;;;;;;7.00;100.00;95930.44;4938571;28;20710;-39
2020/12/24 04:19:58;;;;;;;1.80;0.60;;;;;;;6.96;100.00;95944.44;4937670;28;20231;-39
2020/12/24 04:22:25;;;;;;;6.30;0.80;;;;;;;6.94;100.00;95941.97;4936628;28;20621;-38
2020/12/24 04:24:51;;;;;;;0.70;0.45;;;;;;;6.89;99.65;95927.63;4936078;28;20346;-39
2020/12/24 04:27:18;;;;;;;1.00;0.55;;;;;;;6.96;98.88;95954.81;4937292;28;20657;-39
2020/12/24 04:29:45;;;;;;;1.52;0.60;;;;;;;7.05;98.64;95949.09;4937312;28;20222;-39
2020/12/24 04:32:12;;;;;;;2.45;0.70;;;;;;;7.09;96.26;95924.72;4939891;28;20586;-40
2020/12/24 04:34:39;;;;;;;2.33;0.70;;;;;;;7.09;95.01;95920.38;4940363;28;20300;-39
2020/12/24 04:37:07;;;;;;;1.38;0.50;;;;;;;7.19;93.57;95936.16;4942093;28;20281;-40
2020/12/24 04:39:34;;;;;;;1.00;0.60;;;;;;;7.23;93.89;95929.91;4937733;28;20591;-43
2020/12/24 04:42:01;;;;;;;0.98;0.60;;;;;;;7.20;95.17;95935.28;4938525;28;20676;-45
2020/12/24 04:44:28;;;;;;;4.00;0.60;;;;;;;7.15;96.55;95934.69;4941993;28;20617;-43
2020/12/24 04:46:56;;;;;;;1.35;0.60;;;;;;;7.13;98.19;95939.16;4941568;28;20234;-44
2020/12/24 04:49:24;;;;;;;1.50;0.98;;;;;;;7.11;99.89;95943.56;4942058;28;20634;-43
2020/12/24 04:51:51;;;;;;;0.80;0.50;;;;;;;7.10;100.00;95947.06;4938484;28;20623;-43
2020/12/24 04:54:18;;;;;;;1.77;0.70;;;;;;;7.08;100.00;95939.38;4939129;28;20289;-43
2020/12/24 04:56:45;;;;;;;2.33;1.00;;;;;;;7.09;100.00;95940.22;4929282;28;20867;-43
2020/12/24 04:59:12;;;;;;;0.90;0.68;;;;;;;7.13;100.00;95942.53;4937499;28;20247;-43
2020/12/24 05:01:39;;;;;;;1.58;1.02;;;;;;;7.07;100.00;95937.72;4938467;28;20311;-43
2020/12/24 05:04:06;;;;;;;0.95;0.60;;;;;;;7.09;100.00;95937.66;4940575;28;20686;-44
2020/12/24 05:06:33;;;;;;;3.60;0.70;;;;;;;7.15;100.00;95925.16;4942846;28;20906;-43
2020/12/24 05:09:00;;;;;;;1.63;0.80;;;;;;;7.08;100.00;95920.47;4941515;28;20609;-43
2020/12/24 05:11:29;;;;;;;1.20;0.55;;;;;;;7.01;100.00;95913.97;4941744;28;20681;-43
2020/12/24 05:13:57;;;;;;;2.08;0.60;;;;;;;6.97;100.00;95905.56;4942457;28;20322;-39
2020/12/24 05:16:24;;;;;;;5.88;0.80;;;;;;;6.96;100.00;95908.25;4936333;28;20242;-40
2020/12/24 05:18:51;;;;;;;3.40;0.60;;;;;;;6.96;100.00;95910.81;4937783;28;20223;-39
2020/12/24 05:21:34;;;;;;;1.67;0.80;;;;;;;6.99;99.58;95913.25;4940579;28;20225;-39
2020/12/24 05:24:01;;;;;;;2.50;0.73;;;;;;;6.97;99.53;95909.91;4940516;28;20616;-40
2020/12/24 05:26:30;;;;;;;1.35;0.55;;;;;;;6.98;99.07;95911.56;4940832;28;20584;-39
2020/12/24 05:29:10;;;;;;;0.70;0.50;;;;;;;6.92;99.08;95901.59;4937287;28;20736;-38
2020/12/24 05:31:37;;;;;;;5.50;0.82;;;;;;;6.89;98.91;95912.94;4936457;28;20645;-38
2020/12/24 05:34:04;;;;;;;1.80;0.70;;;;;;;6.89;98.20;95904.34;4939297;28;20601;-38
2020/12/24 05:36:31;;;;;;;10.73;0.80;;;;;;;6.89;97.97;95896.59;4937333;28;20254;-38
2020/12/24 05:38:58;;;;;;;1.83;0.50;;;;;;;6.83;97.48;95899.53;4938417;28;20298;-38
2020/12/24 05:41:31;;;;;;;4.15;0.80;;;;;;;6.82;97.77;95911.66;4937150;28;20353;-38
2020/12/24 05:43:59;;;;;;;2.58;0.70;;;;;;;6.82;97.47;95908.22;4935579;28;20282;-38
2020/12/24 05:46:28;;;;;;;1.52;0.60;;;;;;;6.77;97.51;95899.91;4941360;28;20284;-38
2020/12/24 05:48:56;;;;;;;3.85;0.73;;;;;;;6.83;96.74;95897.78;4938587;28;20250;-38
2020/12/24 05:51:22;;;;;;;2.00;0.80;;;;;;;6.87;96.55;95894.13;4944710;28;20286;-38
2020/12/24 05:53:49;;;;;;;8.23;0.60;;;;;;;6.87;96.41;95895.84;4942489;28;20646;-38
2020/12/24 05:56:21;;;;;;;4.65;1.00;;;;;;;6.87;95.56;95883.78;4939634;28;20219;-43
2020/12/24 05:58:50;;;;;;;1.25;0.60;;;;;;;6.87;96.27;95882.91;4943628;28;20795;-42
2020/12/24 06:01:17;;;;;;;1.48;0.80;;;;;;;6.86;96.01;95878.69;4942935;28;20709;-43
2020/12/24 06:04:00;;;;;;;2.47;0.75;;;;;;;6.87;96.74;95883.78;4943975;28;20629;-43
2020/12/24 06:06:44;;;;;;;5.63;1.00;;;;;;;6.89;96.69;95891.41;4938778;28;20234;-43
2020/12/24 06:09:19;;;;;;;2.30;0.70;;;;;;;6.81;97.48;95885.88;4940808;28;20286;-43
2020/12/24 06:11:48;;;;;;;5.53;0.80;;;;;;;6.86;97.32;95876.09;4938020;28;20201;-44
2020/12/24 06:14:32;;;;;;;2.20;0.80;;;;;;;6.81;98.00;95878.94;4941363;28;20269;-43
2020/12/24 06:17:04;;;;;;;4.20;0.73;;;;;;;6.73;98.26;95875.13;4944707;28;20249;-43
2020/12/24 06:19:38;;;;;;;1.88;0.70;;;;;;;6.74;98.63;95888.00;4946773;28;20588;-39
2020/12/24 06:22:14;;;;;;;2.33;0.73;;;;;;;6.70;98.18;95872.75;4945189;28;20210;-43
2020/12/24 06:24:45;;;;;;;4.32;1.00;;;;;;;6.77;98.76;95866.28;4939084;28;20584;-43
2020/12/24 06:27:26;;;;;;;2.08;0.98;;;;;;;6.81;98.36;95862.59;4942340;28;20611;-44
2020/12/24 06:30:01;;;;;;;7.20;1.50;;;;;;;6.81;97.62;95862.59;4941857;28;20302;-45
2020/12/24 06:32:31;;;;;;;2.25;0.85;;;;;;;6.80;97.40;95848.00;4941472;28;20199;-44
2020/12/24 06:34:58;;;;;;;7.05;1.52;;;;;;;6.77;96.97;95848.19;4943230;28;20262;-44
2020/12/24 06:37:25;;;;;;;2.55;0.70;;;;;;;6.76;97.33;95844.75;4942399;28;20281;-39
2020/12/24 06:39:53;;;;;;;4.53;0.80;;;;;;;6.74;97.39;95848.34;4943545;28;20310;-39
2020/12/24 06:42:43;;;;;;;2.53;0.90;;;;;;;6.68;97.25;95848.72;4945553;28;20788;-44
2020/12/24 06:45:31;;;;;;;3.80;0.93;;;;;;;6.74;96.92;95854.38;4943347;28;20562;-44
2020/12/24 06:48:15;;;;;;;4.80;0.90;;;;;;;6.74;96.85;95850.94;4940154;28;20482;-43
2020/12/24 06:50:43;;;;;;;8.43;1.38;;;;;;;6.71;96.50;95836.44;4942535;28;20646;-43
2020/12/24 06:53:39;;;;;;;3.03;0.90;;;;;;;6.78;96.76;95847.25;4939367;28;20313;-43
2020/12/24 06:56:23;;;;;;;5.18;0.88;;;;;;;6.77;96.19;95837.84;4921778;28;20326;-44
2020/12/24 06:58:55;;;;;;;3.00;0.90;;;;;;;6.79;96.81;95844.56;4940060;28;20222;-47
2020/12/24 07:01:25;;;;;;;1.70;1.08;;;;;;;6.83;96.80;95842.63;4941679;28;20226;-43
2020/12/24 07:03:54;;;;;;;17.42;0.80;;;;;;;6.81;96.18;95836.72;4946932;28;20262;-44
2020/12/24 07:06:51;;;;;;;5.57;0.70;;;;;;;6.83;96.14;95834.88;4944035;28;20190;-43
2020/12/24 07:09:43;;;;;;;2.45;0.60;;;;;;;6.83;96.04;95830.53;4941834;28;20560;-39
2020/12/24 07:12:11;;;;;;;8.25;1.10;;;;;;;6.49;95.46;95778.34;4941001;28;20211;-41
2020/12/24 07:14:40;;;;;;;6.20;0.90;;;;;;;6.81;94.96;95826.38;4940900;28;20293;-40
2020/12/24 07:17:09;;;;;;;6.68;1.00;;;;;;;6.85;95.00;95820.94;4939543;28;20234;-41
2020/12/24 07:19:38;;;;;;;2.35;0.77;;;;;;;6.84;95.26;95815.88;4941162;28;20250;-40
2020/12/24 07:22:08;;;;;;;2.10;0.80;;;;;;;6.83;95.40;95814.19;4945868;28;20207;-40
2020/12/24 07:24:36;;;;;;;2.22;0.93;;;;;;;6.85;96.05;95812.34;4940612;28;20293;-40
2020/12/24 07:27:04;;;;;;;3.72;0.80;;;;;;;6.79;96.51;95810.13;4943457;28;20202;-40
2020/12/24 07:29:33;;;;;;;1.15;0.90;;;;;;;6.76;96.07;95797.38;4937825;28;20617;-40
2020/12/24 07:32:05;;;;;;;5.22;1.10;;;;;;;6.75;94.95;95788.81;4940745;28;20581;-41
2020/12/24 07:34:34;;;;;;;7.10;1.05;;;;;;;6.76;94.39;95797.38;4938880;28;20293;-39
2020/12/24 07:37:02;;;;;;;3.72;0.70;;;;;;;6.72;94.44;95791.59;4938669;28;20708;-40
2020/12/24 07:39:29;;;;;;;5.35;1.23;;;;;;;6.73;94.01;95801.00;4938270;28;20619;-40
2020/12/24 07:41:56;;;;;;;4.43;1.08;;;;;;;6.74;94.27;95815.59;4938187;28;20583;-40
2020/12/24 07:44:23;;;;;;;4.85;0.80;;;;;;;6.76;94.08;95805.13;4939938;28;20751;-40
2020/12/24 07:46:51;;;;;;;4.10;0.70;;;;;;;6.70;93.37;95797.75;4943639;28;20290;-40
2020/12/24 07:49:19;;;;;;;5.35;2.63;;;;;;;6.65;94.55;95815.28;4938769;28;20311;-40
2020/12/24 07:51:55;;;;;;;4.38;1.58;;;;;;;6.63;93.57;95801.63;4941170;28;20199;-46
2020/12/24 07:54:25;;;;;;;2.63;0.80;;;;;;;6.58;93.92;95798.47;4938388;28;20329;-45
2020/12/24 07:56:53;;;;;;;2.33;0.85;;;;;;;6.54;93.17;95807.31;4938167;28;20195;-41
2020/12/24 07:59:20;;;;;;;3.08;0.93;;;;;;;6.48;93.65;95818.03;4946168;28;20229;-40
2020/12/24 08:01:48;;;;;;;3.88;1.27;;;;;;;6.50;94.43;95808.44;4938324;28;20528;-42
2020/12/24 08:04:15;;;;;;;3.60;0.73;;;;;;;6.45;94.66;95800.97;4936993;28;20305;-44
2020/12/24 08:06:42;;;;;;;2.40;0.70;;;;;;;6.37;95.08;95810.06;4937672;28;20291;-44
2020/12/24 08:09:12;;;;;;;1.20;0.65;;;;;;;6.39;94.78;95803.06;4945151;28;20251;-44
2020/12/24 08:11:40;;;;;;;5.47;1.23;;;;;;;6.46;93.96;95809.53;4933227;28;20708;-43
2020/12/24 08:14:08;;;;;;;10.70;2.20;;;;;;;6.48;93.30;95802.53;4935011;28;20219;-45
2020/12/24 08:16:37;;;;;;;5.25;1.23;;;;;;;6.42;92.92;95801.13;4936698;28;20719;-44
2020/12/24 08:19:13;;;;;;;5.78;0.93;;;;;;;6.40;93.82;95810.72;4937545;28;20269;-44
2020/12/24 08:21:52;;;;;;;1.60;0.75;;;;;;;6.32;94.18;95797.44;4935830;28;20246;-43
2020/12/24 08:24:20;;;;;;;2.47;0.80;;;;;;;6.26;94.59;95810.69;4937023;28;20586;-45
2020/12/24 08:26:48;;;;;;;5.38;0.90;;;;;;;6.26;93.66;95796.97;4939337;28;20689;-44
2020/12/24 08:29:15;;;;;;;1.55;0.60;;;;;;;6.26;94.67;95802.13;4936339;28;20297;-49
2020/12/24 08:31:45;;;;;;;2.95;0.60;;;;;;;6.27;94.13;95796.03;4939318;28;20767;-45
2020/12/24 08:34:13;;;;;;;2.03;0.60;;;;;;;6.20;93.44;95786.97;4940037;28;20773;-45
2020/12/24 08:36:45;;;;;;;10.60;0.80;;;;;;;6.26;94.08;95789.22;4938757;28;20285;-45
2020/12/24 08:39:13;;;;;;;1.17;0.70;;;;;;;6.27;93.66;95803.78;4940818;28;20255;-45
2020/12/24 08:41:42;;;;;;;5.25;2.00;;;;;;;6.24;93.27;95799.63;4934339;28;20230;-44
2020/12/24 08:44:10;;;;;;;0.70;0.47;;;;;;;6.22;93.40;95792.88;4940292;28;20664;-45
2020/12/24 08:46:37;;;;;;;0.70;0.50;;;;;;;6.21;93.19;95794.66;4934787;28;20696;-41
2020/12/24 08:49:18;;;;;;;1.80;0.68;;;;;;;6.24;93.41;95814.28;4938406;28;20885;-41
2020/12/24 08:51:45;;;;;;;1.65;0.70;;;;;;;6.24;94.09;95803.94;4937662;28;20507;-40
2020/12/24 08:54:13;;;;;;;2.50;0.70;;;;;;;6.24;93.33;95798.78;4938015;28;20968;-41
2020/12/24 08:56:43;;;;;;;2.10;0.70;;;;;;;6.19;93.41;95790.47;4932063;28;20282;-41
2020/12/24 08:59:13;;;;;;;2.45;0.80;;;;;;;6.28;94.18;95805.44;4939168;28;20298;-41
2020/12/24 09:01:42;;;;;;;2.97;0.80;;;;;;;6.30;94.12;95803.59;4932591;28;20195;-40
2020/12/24 09:04:14;;;;;;;1.75;0.50;;;;;;;6.11;94.01;95779.78;4934084;28;20583;-40
2020/12/24 09:06:41;;;;;;;3.28;0.60;;;;;;;6.31;94.40;95810.44;4938600;28;20254;-43
2020/12/24 09:09:08;;;;;;;1.65;0.60;;;;;;;6.12;94.07;95773.69;4939081;28;20763;-40
2020/12/24 09:11:35;;;;;;;2.78;0.70;;;;;;;6.34;93.92;95799.94;4937641;28;20861;-40
2020/12/24 09:14:05;;;;;;;3.25;1.10;;;;;;;6.39;94.15;95814.25;4934027;28;20701;-40
2020/12/24 09:16:34;;;;;;;3.33;0.65;;;;;;;6.34;94.38;95810.25;4935802;28;20632;-40
2020/12/24 09:19:06;;;;;;;2.75;0.75;;;;;;;6.37;94.69;95815.25;4936344;28;20712;-40
2020/12/24 09:21:34;;;;;;;2.95;0.80;;;;;;;6.36;93.62;95811.00;4939087;28;20217;-41
2020/12/24 09:24:10;;;;;;;1.17;0.60;;;;;;;6.41;94.49;95809.00;4935575;28;20301;-40
2020/12/24 09:26:42;;;;;;;4.68;1.70;;;;;;;6.47;93.66;95826.72;4936798;28;20653;-41
2020/12/24 09:29:09;;;;;;;0.80;0.55;;;;;;;6.52;93.18;95829.84;4941439;28;20310;-41
2020/12/24 09:31:36;;;;;;;0.70;0.50;;;;;;;6.54;93.54;95834.03;4944185;28;20234;-43
2020/12/24 09:34:04;;;;;;;2.00;0.50;;;;;;;6.63;93.65;95830.88;4938576;28;20253;-42
2020/12/24 09:36:30;;;;;;;0.70;0.52;;;;;;;6.64;92.97;95827.38;4942549;28;20582;-44
2020/12/24 09:38:57;;;;;;;0.85;0.40;;;;;;;6.67;93.02;95839.28;4946396;28;20302;-44
2020/12/24 09:41:24;;;;;;;2.00;0.68;;;;;;;6.71;93.65;95844.19;4940080;28;20693;-48
2020/12/24 09:43:51;;;;;;;1.00;0.60;;;;;;;6.58;92.26;95806.22;4942602;28;20229;-49
2020/12/24 09:46:19;;;;;;;1.52;0.60;;;;;;;6.79;92.44;95839.41;4943908;28;20627;-50
2020/12/24 09:48:46;;;;;;;1.75;0.50;;;;;;;6.78;92.61;95847.25;4941566;28;20950;-48
2020/12/24 09:51:13;;;;;;;1.23;0.70;;;;;;;6.88;92.38;95848.38;4947276;28;20238;-49
2020/12/24 09:53:40;;;;;;;1.30;0.80;;;;;;;6.90;92.73;95856.88;4940969;28;20755;-48
2020/12/24 09:56:07;;;;;;;1.20;0.70;;;;;;;6.98;91.94;95858.09;4940467;28;20573;-48
2020/12/24 09:58:34;;;;;;;3.20;0.80;;;;;;;7.02;91.74;95863.91;4939119;28;20783;-48
2020/12/24 10:01:00;;;;;;;1.13;0.70;;;;;;;7.01;91.42;95849.31;4940514;28;20671;-49
2020/12/24 10:03:28;;;;;;;2.38;0.70;;;;;;;7.05;90.86;95854.19;4940379;28;20238;-48
2020/12/24 10:05:55;;;;;;;2.08;0.85;;;;;;;7.13;91.54;95867.50;4941614;28;20225;-48
2020/12/24 10:08:21;;;;;;;1.02;0.63;;;;;;;7.28;90.53;95868.34;4943173;28;20673;-48
2020/12/24 10:10:48;;;;;;;2.25;0.70;;;;;;;7.38;89.49;95867.69;4944575;28;20239;-49
2020/12/24 10:13:15;;;;;;;1.67;0.60;;;;;;;7.37;89.45;95867.78;4937300;28;20563;-47
2020/12/24 10:15:44;;;;;;;2.87;1.00;;;;;;;7.35;90.39;95860.09;4940447;28;20574;-48
2020/12/24 10:18:11;;;;;;;1.15;0.50;;;;;;;7.41;89.97;95853.72;4944259;28;21032;-44
2020/12/24 10:20:39;;;;;;;1.83;0.80;;;;;;;7.33;89.17;95855.94;4937613;28;20609;-44
2020/12/24 10:23:05;;;;;;;1.93;0.70;;;;;;;7.32;89.34;95859.47;4940896;28;21230;-45
2020/12/24 10:25:32;;;;;;;3.45;0.70;;;;;;;7.31;89.93;95842.28;4940793;28;20845;-45
2020/12/24 10:27:59;;;;;;;1.42;0.55;;;;;;;7.40;89.42;95841.69;4938374;28;20605;-48
2020/12/24 10:30:26;;;;;;;1.97;0.50;;;;;;;7.41;88.51;95838.19;4937979;28;20257;-49
2020/12/24 10:32:53;;;;;;;0.93;0.60;;;;;;;7.45;89.11;95845.66;4940560;28;20537;-49
2020/12/24 10:35:20;;;;;;;2.40;0.60;;;;;;;7.50;87.72;95843.63;4941586;28;20620;-48
2020/12/24 10:37:48;;;;;;;1.13;0.50;;;;;;;7.72;87.60;95838.78;4941651;28;20505;-45
2020/12/24 10:40:15;;;;;;;3.10;0.53;;;;;;;7.69;86.38;95838.13;4942652;28;20790;-49
2020/12/24 10:42:46;;;;;;;1.00;0.60;;;;;;;7.97;86.24;95838.06;4939753;28;20924;-48
2020/12/24 10:45:13;;;;;;;4.90;1.40;;;;;;;8.05;85.95;95826.28;4939168;28;20617;-48
2020/12/24 10:47:40;;;;;;;0.97;0.67;;;;;;;8.27;86.10;95823.16;4939866;28;20879;-48
2020/12/24 10:50:08;;;;;;;0.70;0.50;;;;;;;8.53;83.38;95833.47;4939138;28;20969;-48
2020/12/24 10:52:35;;;;;;;1.20;0.73;;;;;;;8.28;85.18;95831.66;4941205;28;20910;-48
2020/12/24 10:55:10;;;;;;;1.47;0.70;;;;;;;9.28;81.22;95838.69;4936298;28;20467;-48
2020/12/24 10:57:37;;;;;;;2.90;0.53;;;;;;;10.22;76.69;95842.25;4943717;28;21093;-49
2020/12/24 11:00:04;;;;;;;6.73;0.70;;;;;;;10.59;75.47;95833.41;4941453;28;20505;-48
2020/12/24 11:02:31;;;;;;;4.00;0.90;;;;;;;9.77;76.47;95822.16;4939130;28;20996;-47
2020/12/24 11:04:58;;;;;;;3.47;0.80;;;;;;;9.59;77.82;95833.00;4938747;28;20876;-47
2020/12/24 11:07:29;;;;;;;1.00;0.70;;;;;;;9.87;77.23;95827.53;4939183;28;20458;-48
2020/12/24 11:09:56;;;;;;;0.90;0.70;;;;;;;9.76;77.78;95814.44;4941399;28;21038;-48
2020/12/24 11:12:24;;;;;;;1.57;0.83;;;;;;;9.39;78.62;95825.78;4943388;28;20917;-48
2020/12/24 11:14:51;;;;;;;1.00;0.60;;;;;;;9.51;78.82;95820.53;4944093;28;20559;-48
2020/12/24 11:17:18;;;;;;;1.13;0.70;;;;;;;10.52;74.91;95831.38;4950217;28;20829;-48
2020/12/24 11:19:45;;;;;;;1.63;0.80;;;;;;;10.97;73.09;95827.97;4947221;28;20478;-45
2020/12/24 11:22:13;;;;;;;1.13;0.60;;;;;;;10.71;72.96;95819.50;4945858;28;20491;-44
2020/12/24 11:24:41;;;;;;;0.90;0.50;;;;;;;10.06;74.81;95818.31;4955884;28;20964;-44
2020/12/24 11:27:12;;;;;;;1.50;0.60;;;;;;;10.14;75.12;95823.78;4946654;28;20487;-44
2020/12/24 11:29:41;;;;;;;1.00;0.60;;;;;;;10.11;74.93;95831.78;4940023;28;20466;-44
2020/12/24 11:32:08;;;;;;;1.53;0.80;;;;;;;10.77;73.67;95826.81;4942742;28;20847;-49
2020/12/24 11:34:38;;;;;;;1.97;0.73;;;;;;;10.61;72.38;95813.31;4936338;28;20478;-48
2020/12/24 11:37:06;;;;;;;0.70;0.50;;;;;;;9.70;74.81;95801.88;4941163;28;20890;-49
2020/12/24 11:39:33;;;;;;;1.10;0.70;;;;;;;9.39;77.37;95811.03;4939993;28;20536;-49
2020/12/24 11:42:08;;;;;;;0.80;0.53;;;;;;;9.20;78.96;95820.19;4941124;28;20465;-44
2020/12/24 11:44:34;;;;;;;2.60;0.70;;;;;;;9.26;77.52;95820.59;4939392;28;20541;-45
2020/12/24 11:47:02;;;;;;;2.13;0.80;;;;;;;9.01;79.54;95820.63;4941580;28;20495;-44
2020/12/24 11:49:29;;;;;;;1.60;0.60;;;;;;;8.86;79.78;95816.47;4939623;28;21022;-44